createdAt,value
2022-09-18T00:01:24.720Z,67.10
2022-09-18T00:03:53.600Z,67.10
2022-09-18T00:06:22.242Z,67.10
2022-09-18T00:08:53.073Z,67.10
2022-09-18T00:11:21.496Z,67.60
2022-09-18T00:13:48.542Z,67.40
2022-09-18T00:16:16.611Z,67.20
2022-09-18T00:18:43.728Z,67.50
2022-09-18T00:21:11.938Z,67.10
2022-09-18T00:23:39.482Z,67.90
2022-09-18T00:26:06.632Z,67.60
2022-09-18T00:28:33.910Z,67.80
2022-09-18T00:31:05.087Z,68.40
2022-09-18T00:33:32.099Z,68.00
2022-09-18T00:36:03.046Z,68.50
2022-09-18T00:38:32.349Z,68.40
2022-09-18T00:41:01.051Z,68.20
2022-09-18T00:43:30.603Z,68.10
2022-09-18T00:46:19.179Z,68.70
2022-09-18T00:48:54.134Z,69.10
2022-09-18T00:51:21.229Z,69.20
2022-09-18T00:53:52.570Z,69.20
2022-09-18T00:56:19.585Z,69.60
2022-09-18T00:58:46.641Z,69.50
2022-09-18T01:01:13.975Z,70.20
2022-09-18T01:03:41.117Z,70.00
2022-09-18T01:06:08.376Z,70.00
2022-09-18T01:08:56.364Z,70.10
2022-09-18T01:11:35.425Z,70.30
2022-09-18T01:14:21.045Z,70.00
2022-09-18T01:16:53.167Z,70.20
2022-09-18T01:19:54.331Z,70.80
2022-09-18T01:22:45.446Z,70.90
2022-09-18T01:25:23.065Z,71.10
2022-09-18T01:27:50.143Z,71.00
2022-09-18T01:30:17.670Z,70.90
2022-09-18T01:32:57.139Z,71.70
2022-09-18T01:35:42.767Z,72.00
2022-09-18T01:38:29.323Z,71.80
2022-09-18T01:41:26.942Z,72.40
2022-09-18T01:44:03.439Z,72.30
2022-09-18T01:46:30.537Z,72.50
2022-09-18T01:49:03.382Z,72.50
2022-09-18T01:52:08.912Z,72.80
2022-09-18T01:54:39.151Z,73.00
2022-09-18T01:57:25.550Z,72.60
2022-09-18T02:00:00.891Z,73.20
2022-09-18T02:02:55.205Z,73.20
2022-09-18T02:05:28.908Z,73.50
2022-09-18T02:08:05.793Z,73.60
2022-09-18T02:10:34.076Z,73.60
2022-09-18T02:13:03.052Z,74.60
2022-09-18T02:15:31.644Z,74.40
2022-09-18T02:18:05.766Z,74.70
2022-09-18T02:20:38.495Z,74.70
2022-09-18T02:23:06.915Z,74.70
2022-09-18T02:25:53.740Z,74.70
2022-09-18T02:28:22.072Z,74.70
2022-09-18T02:30:49.563Z,75.10
2022-09-18T02:33:36.348Z,75.10
2022-09-18T02:36:12.328Z,75.80
2022-09-18T02:38:55.497Z,75.70
2022-09-18T02:41:43.955Z,75.80
2022-09-18T02:44:51.123Z,76.00
2022-09-18T02:47:37.058Z,76.60
2022-09-18T02:50:16.012Z,76.80
2022-09-18T02:53:02.689Z,76.70
2022-09-18T02:55:34.330Z,76.90
2022-09-18T02:58:13.793Z,76.70
2022-09-18T03:00:44.119Z,77.00
2022-09-18T03:03:15.878Z,76.60
2022-09-18T03:05:49.607Z,76.80
2022-09-18T03:08:18.660Z,77.20
2022-09-18T03:10:45.651Z,77.40
2022-09-18T03:13:12.573Z,77.30
2022-09-18T03:15:39.484Z,77.40
2022-09-18T03:18:06.459Z,77.40
2022-09-18T03:20:33.500Z,77.60
2022-09-18T03:23:04.221Z,77.40
2022-09-18T03:25:31.606Z,78.00
2022-09-18T03:27:58.597Z,78.10
2022-09-18T03:30:36.102Z,77.50
2022-09-18T03:33:03.419Z,77.80
2022-09-18T03:35:32.363Z,78.10
2022-09-18T03:37:59.548Z,78.20
2022-09-18T03:40:30.097Z,77.70
2022-09-18T03:42:57.221Z,78.30
2022-09-18T03:45:25.442Z,78.20
2022-09-18T03:47:52.645Z,78.50
2022-09-18T03:50:21.331Z,78.30
2022-09-18T03:52:51.287Z,78.50
2022-09-18T03:55:37.948Z,78.30
2022-09-18T03:58:24.798Z,78.70
2022-09-18T04:01:28.805Z,78.80
2022-09-18T04:04:25.328Z,79.00
2022-09-18T04:07:11.116Z,78.60
2022-09-18T04:09:46.859Z,79.00
2022-09-18T04:12:15.319Z,78.50
2022-09-18T04:14:44.680Z,78.60
2022-09-18T04:17:11.630Z,78.80
2022-09-18T04:19:38.566Z,78.60
2022-09-18T04:22:07.547Z,78.90
2022-09-18T04:24:39.632Z,79.00
2022-09-18T04:27:07.505Z,79.20
2022-09-18T04:29:34.625Z,79.60
2022-09-18T04:32:02.171Z,79.40
2022-09-18T04:34:29.195Z,79.50
2022-09-18T04:36:56.143Z,79.40
2022-09-18T04:39:26.233Z,79.50
2022-09-18T04:41:57.111Z,79.40
2022-09-18T04:44:24.445Z,79.70
2022-09-18T04:46:52.543Z,80.10
2022-09-18T04:49:19.711Z,80.30
2022-09-18T04:51:46.672Z,80.00
2022-09-18T04:54:15.230Z,80.80
2022-09-18T04:56:42.651Z,81.60
2022-09-18T04:59:09.930Z,81.50
2022-09-18T05:01:40.742Z,81.30
2022-09-18T05:04:11.464Z,81.00
2022-09-18T05:06:46.934Z,81.50
2022-09-18T05:09:14.297Z,81.60
2022-09-18T05:11:41.597Z,82.00
2022-09-18T05:14:08.752Z,81.50
2022-09-18T05:16:36.055Z,82.70
2022-09-18T05:19:32.496Z,81.90
2022-09-18T05:22:04.614Z,82.80
2022-09-18T05:24:35.328Z,83.40
2022-09-18T05:27:02.572Z,83.20
2022-09-18T05:29:29.744Z,84.10
2022-09-18T05:32:04.734Z,85.10
2022-09-18T05:34:34.782Z,84.70
2022-09-18T05:37:01.750Z,85.40
2022-09-18T05:39:28.802Z,85.30
2022-09-18T05:41:58.843Z,85.80
2022-09-18T05:44:25.772Z,85.80
2022-09-18T05:46:52.884Z,85.50
2022-09-18T05:49:20.570Z,86.00
2022-09-18T05:51:47.546Z,86.40
2022-09-18T05:54:16.410Z,86.50
2022-09-18T05:56:47.572Z,86.60
2022-09-18T05:59:15.022Z,85.90
2022-09-18T06:01:47.310Z,86.80
2022-09-18T06:04:25.911Z,86.40
2022-09-18T06:07:02.711Z,85.70
2022-09-18T06:09:30.093Z,85.30
2022-09-18T06:11:57.816Z,86.20
2022-09-18T06:14:24.985Z,85.80
2022-09-18T06:16:51.905Z,86.30
2022-09-18T06:19:18.998Z,86.50
2022-09-18T06:21:48.479Z,86.00
2022-09-18T06:24:17.858Z,86.10
2022-09-18T06:26:56.342Z,86.10
2022-09-18T06:29:23.388Z,85.20
2022-09-18T06:32:03.136Z,84.60
2022-09-18T06:34:33.526Z,85.20
2022-09-18T06:37:05.719Z,84.40
2022-09-18T06:39:44.904Z,85.20
2022-09-18T06:42:23.400Z,84.80
2022-09-18T06:45:03.465Z,84.60
2022-09-18T06:47:30.725Z,84.40
2022-09-18T06:49:57.965Z,84.10
2022-09-18T06:52:24.840Z,83.80
2022-09-18T06:54:55.663Z,83.30
2022-09-18T06:57:31.384Z,83.10
2022-09-18T06:59:58.468Z,82.70
2022-09-18T07:02:26.763Z,82.40
2022-09-18T07:05:26.893Z,82.20
2022-09-18T07:07:54.221Z,81.10
2022-09-18T07:10:22.470Z,80.20
2022-09-18T07:12:50.035Z,80.00
2022-09-18T07:15:19.590Z,80.80
2022-09-18T07:17:46.646Z,80.00
2022-09-18T07:20:16.208Z,79.40
2022-09-18T07:22:47.408Z,79.10
2022-09-18T07:25:15.530Z,78.00
2022-09-18T07:27:43.795Z,77.60
2022-09-18T07:30:12.755Z,78.20
2022-09-18T07:32:39.727Z,78.30
2022-09-18T07:35:12.715Z,76.70
2022-09-18T07:37:39.842Z,76.70
2022-09-18T07:40:20.217Z,77.50
2022-09-18T07:43:22.562Z,76.70
2022-09-18T07:45:53.685Z,76.90
2022-09-18T07:48:21.005Z,77.00
2022-09-18T07:50:50.902Z,75.50
2022-09-18T07:53:18.719Z,74.60
2022-09-18T07:55:48.880Z,73.20
2022-09-18T07:58:15.775Z,74.40
2022-09-18T08:00:54.471Z,72.40
2022-09-18T08:03:25.363Z,73.30
2022-09-18T08:05:59.500Z,69.70
2022-09-18T08:08:26.444Z,70.50
2022-09-18T08:11:03.745Z,69.90
2022-09-18T08:13:51.156Z,68.30
2022-09-18T08:16:47.542Z,68.10
2022-09-18T08:19:46.818Z,67.60
2022-09-18T08:22:32.203Z,66.20
2022-09-18T08:24:59.137Z,67.80
2022-09-18T08:27:26.366Z,66.50
2022-09-18T08:29:53.529Z,65.40
2022-09-18T08:32:20.536Z,64.20
2022-09-18T08:34:48.799Z,62.40
2022-09-18T08:37:16.209Z,62.80
2022-09-18T08:40:09.129Z,62.90
2022-09-18T08:42:54.227Z,62.20
2022-09-18T08:45:38.405Z,61.00
2022-09-18T08:48:11.824Z,61.00
2022-09-18T08:50:41.558Z,61.10
2022-09-18T08:53:23.304Z,61.00
2022-09-18T08:56:21.841Z,60.90
2022-09-18T08:59:13.045Z,61.50
2022-09-18T09:01:47.572Z,60.30
2022-09-18T09:04:23.136Z,61.50
2022-09-18T09:07:02.890Z,61.30
2022-09-18T09:09:42.506Z,59.60
2022-09-18T09:12:21.841Z,59.20
2022-09-18T09:14:57.936Z,60.10
2022-09-18T09:17:40.199Z,59.30
2022-09-18T09:20:39.821Z,58.30
2022-09-18T09:23:34.397Z,58.80
2022-09-18T09:26:09.980Z,59.30
2022-09-18T09:28:59.377Z,59.20
2022-09-18T09:32:09.117Z,58.60
2022-09-18T09:34:55.809Z,58.40
2022-09-18T09:37:44.037Z,58.20
2022-09-18T09:40:36.564Z,58.80
2022-09-18T09:43:28.190Z,56.40
2022-09-18T09:45:56.320Z,57.20
2022-09-18T09:48:23.344Z,58.10
2022-09-18T09:51:02.252Z,57.80
2022-09-18T09:53:30.225Z,58.20
2022-09-18T09:56:16.221Z,58.50
2022-09-18T09:58:59.883Z,58.00
2022-09-18T10:01:59.999Z,58.50
2022-09-18T10:04:30.063Z,57.40
2022-09-18T10:07:04.790Z,56.80
2022-09-18T10:09:39.507Z,55.50
2022-09-18T10:12:24.516Z,58.10
2022-09-18T10:14:55.406Z,55.30
2022-09-18T10:17:22.384Z,56.40
2022-09-18T10:19:50.209Z,54.00
2022-09-18T10:22:19.349Z,55.40
2022-09-18T10:24:57.162Z,55.10
2022-09-18T10:27:25.946Z,56.30
2022-09-18T10:29:55.935Z,55.30
2022-09-18T10:32:41.520Z,54.00
2022-09-18T10:35:30.914Z,53.90
2022-09-18T10:37:59.327Z,52.80
2022-09-18T10:40:40.202Z,53.50
2022-09-18T10:43:18.289Z,54.30
2022-09-18T10:45:53.008Z,53.20
2022-09-18T10:48:39.790Z,52.90
2022-09-18T10:51:07.786Z,53.40
2022-09-18T10:53:44.527Z,53.50
2022-09-18T10:56:31.953Z,52.60
2022-09-18T10:59:33.914Z,51.70
2022-09-18T11:02:02.992Z,51.20
2022-09-18T11:04:32.933Z,52.20
2022-09-18T11:07:03.429Z,50.90
2022-09-18T11:09:38.972Z,50.80
2022-09-18T11:12:23.747Z,51.80
2022-09-18T11:15:14.332Z,51.00
2022-09-18T11:17:50.529Z,50.60
2022-09-18T11:20:31.985Z,51.20
2022-09-18T11:23:28.925Z,50.30
2022-09-18T11:26:20.871Z,50.50
2022-09-18T11:29:17.511Z,51.00
2022-09-18T11:31:51.833Z,52.30
2022-09-18T11:34:29.915Z,51.30
2022-09-18T11:37:00.416Z,49.80
2022-09-18T11:39:33.778Z,50.30
2022-09-18T11:42:02.010Z,50.70
2022-09-18T11:44:32.067Z,50.70
2022-09-18T11:47:22.340Z,49.40
2022-09-18T11:49:59.600Z,49.70
2022-09-18T11:52:40.005Z,49.30
2022-09-18T11:55:37.880Z,49.50
2022-09-18T11:58:16.384Z,48.40
2022-09-18T12:00:48.253Z,48.80
2022-09-18T12:03:25.818Z,50.00
2022-09-18T12:06:13.303Z,49.40
2022-09-18T12:08:42.500Z,48.90
2022-09-18T12:11:28.926Z,47.80
2022-09-18T12:14:20.657Z,48.00
2022-09-18T12:17:14.499Z,47.30
2022-09-18T12:19:48.285Z,45.90
2022-09-18T12:22:26.806Z,47.10
2022-09-18T12:24:54.769Z,47.90
2022-09-18T12:28:15.730Z,47.60
2022-09-18T12:30:51.327Z,44.90
2022-09-18T12:33:34.039Z,46.90
2022-09-18T12:36:07.351Z,47.10
2022-09-18T12:38:53.824Z,46.90
2022-09-18T12:41:35.876Z,46.40
2022-09-18T12:44:36.935Z,47.80
2022-09-18T12:47:20.198Z,46.00
2022-09-18T12:50:19.436Z,46.90
2022-09-18T12:53:09.775Z,45.80
2022-09-18T12:56:01.992Z,46.80
2022-09-18T12:58:29.072Z,46.20
2022-09-18T13:00:56.140Z,47.30
2022-09-18T13:03:30.658Z,47.50
2022-09-18T13:06:10.481Z,47.30
2022-09-18T13:08:44.287Z,47.50
2022-09-18T13:11:32.900Z,47.00
2022-09-18T13:14:06.628Z,48.10
2022-09-18T13:17:01.881Z,48.00
2022-09-18T13:19:33.724Z,48.60
2022-09-18T13:22:04.587Z,48.30
2022-09-18T13:24:34.045Z,47.80
2022-09-18T13:27:06.907Z,48.20
2022-09-18T13:29:51.662Z,48.80
2022-09-18T13:32:26.272Z,48.50
2022-09-18T13:34:58.077Z,49.60
2022-09-18T13:37:26.187Z,49.30
2022-09-18T13:40:25.889Z,49.60
2022-09-18T13:42:52.844Z,49.20
2022-09-18T13:45:26.470Z,49.50
2022-09-18T13:48:19.632Z,49.80
2022-09-18T13:50:54.148Z,50.30
2022-09-18T13:53:40.843Z,51.80
2022-09-18T13:56:12.509Z,52.00
2022-09-18T13:58:56.012Z,51.70
2022-09-18T14:01:41.307Z,52.50
2022-09-18T14:04:40.764Z,51.90
2022-09-18T14:07:17.054Z,50.90
2022-09-18T14:10:05.683Z,53.50
2022-09-18T14:12:33.927Z,52.10
2022-09-18T14:15:02.519Z,50.60
2022-09-18T14:17:30.689Z,50.40
2022-09-18T14:20:01.588Z,49.80
2022-09-18T14:22:30.045Z,49.70
2022-09-18T14:24:59.934Z,51.40
2022-09-18T14:27:49.135Z,50.80
2022-09-18T14:30:17.369Z,51.50
2022-09-18T14:33:03.503Z,49.80
2022-09-18T14:35:44.209Z,49.70
2022-09-18T14:38:24.821Z,50.60
2022-09-18T14:41:08.877Z,50.60
2022-09-18T14:43:39.706Z,51.20
2022-09-18T14:46:07.277Z,51.10
2022-09-18T14:48:38.631Z,51.40
2022-09-18T14:51:26.989Z,52.70
2022-09-18T14:53:57.700Z,51.40
2022-09-18T14:56:32.973Z,51.60
2022-09-18T14:59:03.075Z,50.90
2022-09-18T15:01:32.575Z,52.10
2022-09-18T15:04:00.931Z,51.30
2022-09-18T15:06:51.952Z,51.60
2022-09-18T15:09:36.911Z,50.70
2022-09-18T15:12:04.112Z,51.60
2022-09-18T15:14:42.672Z,51.60
2022-09-18T15:17:19.894Z,51.20
2022-09-18T15:19:59.949Z,50.90
2022-09-18T15:22:27.733Z,51.70
2022-09-18T15:24:55.278Z,51.50
2022-09-18T15:27:22.208Z,52.10
2022-09-18T15:29:54.057Z,52.60
2022-09-18T15:32:28.952Z,51.60
2022-09-18T15:34:55.938Z,52.00
2022-09-18T15:37:24.438Z,51.60
2022-09-18T15:40:05.207Z,51.50
2022-09-18T15:42:41.950Z,52.00
2022-09-18T15:45:11.581Z,52.40
2022-09-18T15:47:40.676Z,53.50
2022-09-18T15:50:13.552Z,53.20
2022-09-18T15:52:58.184Z,52.50
2022-09-18T15:55:53.396Z,52.80
2022-09-18T15:58:26.478Z,52.10
2022-09-18T16:00:58.222Z,52.30
2022-09-18T16:03:28.064Z,52.30
2022-09-18T16:05:56.844Z,52.70
2022-09-18T16:08:26.787Z,52.30
2022-09-18T16:10:53.996Z,52.20
2022-09-18T16:13:20.964Z,52.00
2022-09-18T16:15:48.075Z,52.50
2022-09-18T16:18:19.811Z,52.60
2022-09-18T16:20:53.801Z,53.10
2022-09-18T16:23:31.054Z,52.60
2022-09-18T16:26:09.205Z,52.20
2022-09-18T16:28:49.812Z,52.60
2022-09-18T16:31:21.427Z,52.90
2022-09-18T16:33:51.468Z,53.20
2022-09-18T16:36:27.560Z,53.20
2022-09-18T16:38:55.611Z,53.70
2022-09-18T16:41:22.561Z,54.30
2022-09-18T16:43:51.332Z,53.30
2022-09-18T16:46:20.695Z,54.30
2022-09-18T16:48:47.689Z,54.20
2022-09-18T16:51:14.621Z,53.80
2022-09-18T16:53:41.632Z,54.20
2022-09-18T16:56:10.339Z,53.80
2022-09-18T16:58:38.955Z,54.30
2022-09-18T17:01:05.853Z,53.90
2022-09-18T17:03:32.936Z,54.80
2022-09-18T17:06:02.072Z,54.10
2022-09-18T17:08:30.399Z,54.10
2022-09-18T17:10:57.755Z,54.80
2022-09-18T17:13:24.777Z,54.60
2022-09-18T17:15:51.729Z,55.20
2022-09-18T17:18:18.756Z,55.40
2022-09-18T17:20:46.074Z,55.40
2022-09-18T17:23:13.358Z,55.30
2022-09-18T17:25:40.536Z,55.60
2022-09-18T17:28:07.801Z,55.50
2022-09-18T17:30:34.667Z,56.00
2022-09-18T17:33:02.809Z,55.80
2022-09-18T17:35:29.769Z,55.80
2022-09-18T17:37:56.671Z,55.90
2022-09-18T17:40:23.578Z,56.10
2022-09-18T17:42:50.666Z,56.50
2022-09-18T17:45:17.879Z,56.10
2022-09-18T17:47:44.913Z,56.20
2022-09-18T17:50:12.327Z,57.00
2022-09-18T17:52:39.308Z,56.80
2022-09-18T17:55:06.966Z,56.70
2022-09-18T17:57:35.415Z,56.90
2022-09-18T18:00:02.442Z,57.50
2022-09-18T18:02:39.690Z,58.90
2022-09-18T18:05:06.822Z,60.20
2022-09-18T18:07:33.797Z,60.80
2022-09-18T18:10:00.650Z,63.80
2022-09-18T18:12:27.572Z,65.10
2022-09-18T18:14:54.412Z,66.10
2022-09-18T18:17:21.519Z,67.60
2022-09-18T18:19:49.686Z,70.00
2022-09-18T18:22:17.197Z,69.60
2022-09-18T18:24:44.572Z,71.80
2022-09-18T18:27:11.517Z,74.70
2022-09-18T18:29:41.007Z,73.60
2022-09-18T18:32:07.886Z,74.80
2022-09-18T18:34:34.967Z,73.80
2022-09-18T18:37:02.998Z,72.50
2022-09-18T18:39:30.067Z,74.90
2022-09-18T18:41:56.996Z,75.60
2022-09-18T18:44:23.936Z,75.10
2022-09-18T18:46:51.137Z,75.80
2022-09-18T18:49:18.219Z,74.40
2022-09-18T18:51:47.954Z,76.70
2022-09-18T18:54:16.562Z,76.00
2022-09-18T18:56:43.685Z,77.30
2022-09-18T18:59:12.691Z,76.40
2022-09-18T19:01:40.058Z,78.40
2022-09-18T19:04:11.045Z,76.80
2022-09-18T19:06:39.897Z,75.90
2022-09-18T19:09:18.191Z,76.00
2022-09-18T19:11:50.490Z,75.60
2022-09-18T19:14:25.315Z,76.20
2022-09-18T19:16:53.028Z,76.00
2022-09-18T19:19:21.286Z,75.60
2022-09-18T19:21:48.240Z,75.10
2022-09-18T19:24:15.777Z,74.60
2022-09-18T19:26:43.109Z,74.90
2022-09-18T19:29:12.243Z,74.60
2022-09-18T19:31:40.432Z,74.40
2022-09-18T19:34:07.529Z,73.60
2022-09-18T19:36:34.600Z,74.60
2022-09-18T19:39:04.160Z,74.00
2022-09-18T19:41:39.092Z,73.90
2022-09-18T19:44:10.446Z,73.90
2022-09-18T19:46:37.441Z,74.00
2022-09-18T19:49:04.622Z,75.20
2022-09-18T19:51:31.522Z,75.80
2022-09-18T19:53:58.441Z,76.10
2022-09-18T19:56:42.031Z,75.40
2022-09-18T19:59:10.532Z,75.90
2022-09-18T20:01:37.508Z,75.00
2022-09-18T20:04:04.544Z,75.50
2022-09-18T20:06:32.910Z,75.80
2022-09-18T20:09:00.333Z,75.80
2022-09-18T20:11:27.246Z,77.80
2022-09-18T20:13:54.349Z,76.20
2022-09-18T20:16:22.582Z,75.70
2022-09-18T20:18:50.058Z,76.50
2022-09-18T20:21:17.971Z,75.20
2022-09-18T20:23:45.190Z,76.40
2022-09-18T20:26:13.836Z,77.30
2022-09-18T20:28:40.896Z,76.60
2022-09-18T20:31:09.851Z,76.50
2022-09-18T20:33:36.904Z,75.70
2022-09-18T20:36:04.887Z,75.10
2022-09-18T20:38:32.760Z,75.20
2022-09-18T20:41:06.762Z,76.00
2022-09-18T20:43:34.090Z,77.30
2022-09-18T20:46:02.417Z,77.50
2022-09-18T20:48:37.989Z,78.20
2022-09-18T20:51:08.030Z,78.70
2022-09-18T20:53:39.197Z,79.60
2022-09-18T20:56:10.867Z,81.10
2022-09-18T20:58:39.373Z,81.90
2022-09-18T21:01:11.482Z,81.40
2022-09-18T21:03:39.895Z,81.80
2022-09-18T21:06:22.355Z,81.50
2022-09-18T21:08:53.533Z,80.90
2022-09-18T21:11:25.680Z,80.80
2022-09-18T21:13:57.002Z,81.70
2022-09-18T21:16:25.951Z,82.40
2022-09-18T21:18:55.690Z,83.20
2022-09-18T21:21:22.783Z,84.50
2022-09-18T21:24:01.302Z,84.80
2022-09-18T21:26:33.203Z,85.30
2022-09-18T21:29:04.267Z,86.20
2022-09-18T21:31:32.797Z,87.30
2022-09-18T21:34:00.366Z,85.00
2022-09-18T21:36:27.444Z,85.40
2022-09-18T21:38:54.922Z,84.40
2022-09-18T21:41:22.352Z,83.60
2022-09-18T21:43:50.670Z,84.50
2022-09-18T21:46:19.487Z,84.90
2022-09-18T21:48:47.640Z,85.70
2022-09-18T21:51:16.048Z,87.00
2022-09-18T21:53:43.537Z,87.80
2022-09-18T21:56:12.363Z,87.80
2022-09-18T21:58:40.830Z,87.70
2022-09-18T22:01:28.649Z,88.30
2022-09-18T22:03:56.402Z,89.90
2022-09-18T22:06:24.078Z,88.40
2022-09-18T22:08:52.514Z,88.90
2022-09-18T22:11:20.356Z,88.30
2022-09-18T22:13:47.523Z,89.00
2022-09-18T22:16:14.453Z,90.00
2022-09-18T22:18:41.553Z,89.90
2022-09-18T22:21:22.538Z,89.50
2022-09-18T22:24:06.438Z,89.10
2022-09-18T22:26:38.046Z,89.20
2022-09-18T22:29:06.792Z,89.10
2022-09-18T22:31:37.327Z,89.40
2022-09-18T22:34:04.708Z,89.80
2022-09-18T22:36:31.635Z,89.10
2022-09-18T22:38:58.604Z,88.80
2022-09-18T22:41:25.568Z,87.70
2022-09-18T22:43:56.272Z,87.50
2022-09-18T22:46:24.566Z,86.00
2022-09-18T22:48:52.145Z,86.00
2022-09-18T22:51:20.630Z,86.00
2022-09-18T22:54:04.729Z,86.00
2022-09-18T22:56:31.762Z,85.90
2022-09-18T22:59:02.131Z,85.50
2022-09-18T23:01:42.590Z,85.50
2022-09-18T23:04:10.016Z,86.10
2022-09-18T23:06:36.921Z,84.80
2022-09-18T23:09:04.708Z,84.80
2022-09-18T23:11:32.666Z,84.50
2022-09-18T23:14:01.302Z,84.30
2022-09-18T23:16:29.856Z,85.10
2022-09-18T23:19:02.180Z,84.70
2022-09-18T23:21:31.636Z,85.30
2022-09-18T23:24:05.896Z,85.80
2022-09-18T23:26:37.948Z,86.00
2022-09-18T23:29:06.681Z,85.90
2022-09-18T23:31:35.296Z,86.30
2022-09-18T23:34:04.004Z,86.30
2022-09-18T23:36:38.939Z,86.60
2022-09-18T23:39:22.387Z,86.40
2022-09-18T23:41:49.688Z,86.80
2022-09-18T23:44:17.345Z,87.10
2022-09-18T23:46:44.550Z,86.20
2022-09-18T23:49:13.086Z,86.30
2022-09-18T23:51:42.053Z,87.70
2022-09-18T23:54:16.728Z,88.60
2022-09-18T23:56:43.791Z,89.90
2022-09-18T23:59:11.202Z,90.20
